Time;durP1;ratioP1;P1;durP2;ratioP2;P2;SDS_P1;SDS_P2;PMS_P1;PMS_P2;Temp;Humidity;BMP_temperature;BMP_pressure;BME280_temperature;BME280_humidity;BME280_pressure;Samples;Min_cycle;Max_cycle;Signal;HPM_P1;HPM_P2
2021/10/29 00:00:00;;;;;;;13.27;8.68;;;;;;;12.73;69.79;100909.81;4990289;28;20038;-55
2021/10/29 00:02:27;;;;;;;13.65;8.73;;;;;;;12.70;70.13;100904.53;4995908;28;20343;-54
2021/10/29 00:04:54;;;;;;;13.48;8.77;;;;;;;12.67;70.04;100901.91;4993727;28;20501;-55
2021/10/29 00:07:19;;;;;;;13.27;8.60;;;;;;;12.66;70.29;100905.41;4996840;28;20347;-56
2021/10/29 00:09:45;;;;;;;16.00;8.68;;;;;;;12.56;70.42;100901.88;4990927;28;20358;-55
2021/10/29 00:12:12;;;;;;;12.45;8.20;;;;;;;12.54;70.35;100903.59;4989682;28;20049;-55
2021/10/29 00:14:39;;;;;;;12.82;8.27;;;;;;;12.44;70.83;100905.25;4990063;28;20389;-54
2021/10/29 00:17:04;;;;;;;15.20;9.07;;;;;;;12.36;70.84;100903.47;5002376;28;20562;-58
2021/10/29 00:19:29;;;;;;;12.98;8.68;;;;;;;12.32;71.05;100901.72;4987389;28;20049;-55
2021/10/29 00:21:57;;;;;;;14.95;8.50;;;;;;;12.22;71.61;100903.38;4990182;28;20140;-56
2021/10/29 00:24:22;;;;;;;16.80;8.77;;;;;;;12.30;70.95;100903.44;5004549;28;20057;-55
2021/10/29 00:26:48;;;;;;;13.05;8.27;;;;;;;12.21;71.73;100891.16;5011495;28;20088;-53
2021/10/29 00:29:13;;;;;;;13.30;8.60;;;;;;;12.20;71.49;100895.50;4994993;28;20423;-55
2021/10/29 00:31:39;;;;;;;13.07;8.70;;;;;;;12.25;71.51;100899.91;4990982;28;20117;-55
2021/10/29 00:34:05;;;;;;;15.15;8.95;;;;;;;12.23;71.64;100899.03;4984746;28;20038;-56
2021/10/29 00:36:30;;;;;;;17.85;8.88;;;;;;;12.12;71.70;100888.50;4993624;28;20077;-54
2021/10/29 00:38:55;;;;;;;14.25;8.50;;;;;;;12.16;71.37;100892.88;4995366;28;20653;-56
2021/10/29 00:41:21;;;;;;;15.00;8.88;;;;;;;12.26;71.27;100888.59;4995602;28;20045;-53
2021/10/29 00:43:46;;;;;;;13.35;8.63;;;;;;;12.19;71.20;100892.91;4990300;28;20034;-55
2021/10/29 00:46:12;;;;;;;13.88;8.52;;;;;;;12.06;71.85;100889.34;4987549;28;20423;-57
2021/10/29 00:48:37;;;;;;;15.10;8.27;;;;;;;12.20;71.27;100890.28;4994461;28;20056;-54
2021/10/29 00:51:04;;;;;;;14.32;8.75;;;;;;;12.16;71.30;100890.25;4995398;28;20084;-57
2021/10/29 00:53:30;;;;;;;12.93;8.70;;;;;;;12.13;71.42;100888.53;4995296;28;20054;-54
2021/10/29 00:55:56;;;;;;;15.13;8.50;;;;;;;12.15;71.32;100891.13;4988362;28;20157;-54
2021/10/29 00:58:21;;;;;;;13.60;8.70;;;;;;;12.20;71.32;100889.41;4999366;28;20141;-55
2021/10/29 01:00:47;;;;;;;12.48;8.00;;;;;;;12.18;70.84;100886.81;4993050;28;20164;-55
2021/10/29 01:03:13;;;;;;;12.25;8.27;;;;;;;12.09;71.27;100883.25;5000862;28;20048;-55
2021/10/29 01:05:39;;;;;;;15.43;8.48;;;;;;;12.08;71.45;100881.47;4998835;28;20132;-55
2021/10/29 01:08:05;;;;;;;13.70;8.15;;;;;;;12.05;71.58;100882.34;4994140;28;20048;-55
2021/10/29 01:10:32;;;;;;;15.80;8.20;;;;;;;12.04;71.50;100882.34;5003138;28;20488;-55
2021/10/29 01:12:58;;;;;;;13.30;8.73;;;;;;;11.93;72.41;100878.78;5000003;28;20409;-56
2021/10/29 01:15:23;;;;;;;13.07;8.45;;;;;;;12.03;71.80;100880.59;4994180;28;20048;-54
2021/10/29 01:17:48;;;;;;;14.07;8.25;;;;;;;12.08;71.66;100873.66;5001006;28;20114;-54
2021/10/29 01:20:21;;;;;;;13.27;8.43;;;;;;;12.06;71.54;100878.88;4991106;28;20054;-54
2021/10/29 01:22:47;;;;;;;13.15;8.10;;;;;;;12.06;71.55;100873.66;4993548;28;20064;-55
2021/10/29 01:25:12;;;;;;;11.02;7.95;;;;;;;12.05;71.53;100874.50;4997949;28;20493;-56
2021/10/29 01:27:38;;;;;;;11.77;7.95;;;;;;;12.05;71.72;100864.06;5001130;28;20045;-55
2021/10/29 01:30:04;;;;;;;16.52;8.27;;;;;;;12.06;71.72;100865.81;5008062;28;20022;-56
2021/10/29 01:32:29;;;;;;;13.00;8.23;;;;;;;12.04;71.69;100861.44;5006927;28;20109;-54
2021/10/29 01:34:55;;;;;;;13.63;8.35;;;;;;;12.11;71.70;100860.63;5024470;28;20042;-55
2021/10/29 01:37:21;;;;;;;11.65;7.63;;;;;;;12.07;71.21;100854.50;5022568;28;20111;-56
2021/10/29 01:39:46;;;;;;;13.18;8.02;;;;;;;12.09;70.89;100852.75;5015677;28;20033;-55
2021/10/29 01:42:12;;;;;;;11.77;7.63;;;;;;;12.09;71.62;100852.75;5003924;28;20475;-55
2021/10/29 01:44:38;;;;;;;12.52;8.02;;;;;;;12.12;71.09;100846.69;4994949;28;20189;-55
2021/10/29 01:47:03;;;;;;;15.55;7.65;;;;;;;12.06;71.21;100844.91;5014719;28;20042;-56
2021/10/29 01:49:29;;;;;;;12.27;7.32;;;;;;;12.21;70.81;100828.44;4998828;28;20421;-55
2021/10/29 01:51:55;;;;;;;13.60;7.93;;;;;;;12.19;70.54;100835.41;4989463;28;20141;-56
2021/10/29 01:54:21;;;;;;;11.57;7.63;;;;;;;12.13;71.09;100835.38;4991716;28;20056;-54
2021/10/29 01:56:47;;;;;;;14.40;8.07;;;;;;;12.10;71.13;100833.59;4998948;28;20396;-56
2021/10/29 01:59:12;;;;;;;13.30;8.02;;;;;;;12.10;70.96;100823.16;5001235;28;20495;-55
2021/10/29 02:01:38;;;;;;;12.93;7.80;;;;;;;12.13;71.07;100817.97;5003186;28;20064;-54
2021/10/29 02:04:03;;;;;;;11.73;7.78;;;;;;;12.15;70.82;100821.44;4984274;28;20191;-56
2021/10/29 02:06:29;;;;;;;12.77;7.72;;;;;;;12.15;70.70;100813.59;5000142;28;20047;-55
2021/10/29 02:08:54;;;;;;;13.93;7.95;;;;;;;12.16;70.20;100807.50;4994658;28;20294;-56
2021/10/29 02:11:19;;;;;;;12.10;7.85;;;;;;;12.34;70.20;100811.09;4995734;28;20069;-56
2021/10/29 02:13:45;;;;;;;13.25;7.68;;;;;;;12.35;70.09;100802.38;4999856;28;20041;-57
2021/10/29 02:16:10;;;;;;;13.60;8.13;;;;;;;12.30;70.19;100802.38;4989007;28;20365;-55
2021/10/29 02:18:36;;;;;;;13.23;7.97;;;;;;;12.35;70.24;100799.78;4998877;28;20045;-59
2021/10/29 02:21:01;;;;;;;11.73;7.65;;;;;;;12.37;69.88;100798.03;4994478;28;20044;-54
2021/10/29 02:23:27;;;;;;;13.88;7.85;;;;;;;12.37;69.92;100790.22;4994822;28;20286;-54
2021/10/29 02:25:52;;;;;;;12.02;7.78;;;;;;;12.29;70.20;100787.53;4997147;28;20045;-56
2021/10/29 02:28:19;;;;;;;16.13;8.38;;;;;;;12.15;70.48;100790.06;4992561;28;20049;-53
2021/10/29 02:30:46;;;;;;;17.80;8.13;;;;;;;12.22;70.38;100787.50;4998456;28;20048;-53
2021/10/29 02:33:12;;;;;;;16.55;7.72;;;;;;;12.26;70.20;100799.75;4999352;28;20038;-52
2021/10/29 02:35:37;;;;;;;15.25;8.13;;;;;;;12.20;70.20;100795.31;4995408;28;20242;-55
2021/10/29 02:38:03;;;;;;;17.08;8.00;;;;;;;12.08;70.80;100790.03;4995735;28;20057;-54
2021/10/29 02:40:29;;;;;;;15.75;8.18;;;;;;;12.09;70.98;100789.16;4999054;28;20118;-55
2021/10/29 02:42:54;;;;;;;12.30;8.10;;;;;;;12.07;70.93;100790.91;4993364;28;20045;-54
2021/10/29 02:45:20;;;;;;;15.25;7.90;;;;;;;12.03;71.18;100792.63;4995826;28;20053;-55
2021/10/29 02:47:48;;;;;;;16.02;8.30;;;;;;;12.08;71.07;100785.69;4997803;28;20509;-53
2021/10/29 02:50:19;;;;;;;14.43;7.90;;;;;;;12.08;70.88;100790.91;4993281;28;21872;-54
2021/10/29 02:52:45;;;;;;;12.13;8.02;;;;;;;12.08;70.57;100780.44;5003325;28;20071;-53
2021/10/29 02:55:12;;;;;;;14.32;8.18;;;;;;;12.11;70.13;100782.22;4999446;28;20513;-54
2021/10/29 02:57:38;;;;;;;12.35;8.18;;;;;;;12.11;70.45;100782.22;4995070;28;20541;-56
2021/10/29 03:00:06;;;;;;;12.90;8.15;;;;;;;12.10;70.54;100773.50;4998629;28;20049;-55
2021/10/29 03:02:33;;;;;;;11.80;7.68;;;;;;;12.09;70.69;100782.19;5001090;28;20048;-55
2021/10/29 03:04:59;;;;;;;13.70;8.43;;;;;;;12.02;70.90;100776.94;4995015;28;20403;-53
2021/10/29 03:07:25;;;;;;;13.60;8.05;;;;;;;12.01;70.80;100775.19;4994670;28;20050;-53
2021/10/29 03:09:50;;;;;;;12.50;8.40;;;;;;;12.00;71.14;100770.84;5001368;28;20135;-55
2021/10/29 03:12:15;;;;;;;15.85;8.75;;;;;;;11.81;71.91;100767.22;4989791;28;20326;-54
2021/10/29 03:14:41;;;;;;;15.98;8.32;;;;;;;12.06;70.69;100771.75;4995297;28;20041;-52
2021/10/29 03:17:06;;;;;;;17.05;8.13;;;;;;;12.06;70.70;100774.38;4996226;28;20141;-56
2021/10/29 03:19:32;;;;;;;19.17;8.68;;;;;;;12.02;70.90;100763.84;4997961;28;20124;-54
2021/10/29 03:21:57;;;;;;;13.35;8.10;;;;;;;12.00;70.91;100765.63;4992830;28;20038;-55
2021/10/29 03:24:22;;;;;;;12.63;8.00;;;;;;;12.03;70.71;100761.25;4992415;28;20522;-54
2021/10/29 03:26:48;;;;;;;15.88;8.43;;;;;;;11.98;71.07;100757.75;4993467;28;20151;-57
2021/10/29 03:29:13;;;;;;;14.70;8.60;;;;;;;12.05;70.91;100769.13;4995977;28;20045;-55
2021/10/29 03:31:39;;;;;;;13.63;8.38;;;;;;;12.00;70.79;100758.66;4996847;28;20064;-54
2021/10/29 03:34:04;;;;;;;13.40;8.00;;;;;;;12.04;70.96;100755.19;4988268;28;20045;-55
2021/10/29 03:36:29;;;;;;;14.48;8.50;;;;;;;11.99;70.52;100758.63;4996671;28;20037;-51
2021/10/29 03:38:59;;;;;;;16.30;8.50;;;;;;;12.09;70.75;100750.84;4994406;28;20660;-54
2021/10/29 03:41:28;;;;;;;13.15;7.97;;;;;;;12.07;70.91;100762.19;4994047;28;20084;-57
2021/10/29 03:43:57;;;;;;;11.68;7.65;;;;;;;12.04;70.84;100752.56;4994462;28;20047;-56
2021/10/29 03:46:27;;;;;;;14.90;8.18;;;;;;;12.05;70.74;100756.06;4999249;28;20489;-53
2021/10/29 03:49:05;;;;;;;18.45;8.40;;;;;;;12.06;70.60;100755.19;5001215;28;20080;-56
2021/10/29 03:54:09;;;;;;;12.98;8.10;;;;;;;12.03;70.77;100756.03;4987360;28;20516;-56
2021/10/29 03:59:18;;;;;;;13.50;8.40;;;;;;;12.01;70.88;100757.78;4996644;28;20056;-55
2021/10/29 04:01:44;;;;;;;13.10;8.10;;;;;;;12.04;70.60;100747.34;4999206;28;20393;-55
2021/10/29 04:04:10;;;;;;;14.35;8.45;;;;;;;11.95;71.37;100744.69;4987834;28;20381;-56
2021/10/29 04:06:35;;;;;;;15.13;8.55;;;;;;;12.01;70.89;100749.94;4993687;28;20045;-56
2021/10/29 04:09:01;;;;;;;17.13;8.80;;;;;;;11.96;70.83;100748.16;4998713;28;20166;-54
2021/10/29 04:11:28;;;;;;;13.55;8.18;;;;;;;12.04;70.70;100744.72;4995029;28;20050;-56
2021/10/29 04:13:55;;;;;;;10.98;8.02;;;;;;;12.00;71.01;100742.97;4989365;28;20128;-55
2021/10/29 04:16:20;;;;;;;16.40;8.27;;;;;;;11.98;71.23;100746.44;4995913;28;20033;-55
2021/10/29 04:18:45;;;;;;;15.88;8.10;;;;;;;12.03;70.82;100740.38;4997604;28;20048;-56
2021/10/29 04:21:11;;;;;;;11.40;8.32;;;;;;;12.02;70.64;100740.34;4993777;28;20038;-54
2021/10/29 04:23:37;;;;;;;15.73;8.40;;;;;;;12.05;70.60;100736.03;4997769;28;20403;-55
2021/10/29 04:26:02;;;;;;;14.82;8.45;;;;;;;12.00;70.81;100739.47;4993910;28;20065;-53
2021/10/29 04:28:28;;;;;;;15.23;8.10;;;;;;;12.10;70.63;100734.31;5012277;28;20075;-55
2021/10/29 04:30:55;;;;;;;14.30;8.27;;;;;;;12.11;70.42;100732.56;4993814;28;20041;-54
2021/10/29 04:33:22;;;;;;;14.15;8.45;;;;;;;12.13;70.38;100733.47;5003781;28;20037;-55
2021/10/29 04:35:51;;;;;;;14.15;8.20;;;;;;;12.18;70.27;100726.50;4997419;28;20042;-55
2021/10/29 04:38:17;;;;;;;13.85;8.38;;;;;;;12.16;69.97;100718.66;4996261;28;20057;-56
2021/10/29 04:40:42;;;;;;;14.57;8.30;;;;;;;12.12;70.60;100721.25;4996216;28;20279;-52
2021/10/29 04:43:09;;;;;;;13.40;8.20;;;;;;;12.11;70.55;100719.50;4997503;28;20045;-56
2021/10/29 04:45:35;;;;;;;12.82;8.02;;;;;;;12.09;70.49;100716.88;5001141;28;20132;-56
2021/10/29 04:48:01;;;;;;;12.40;8.38;;;;;;;12.08;70.54;100714.25;4996484;28;20041;-54
2021/10/29 04:50:26;;;;;;;13.25;8.20;;;;;;;12.04;70.73;100702.03;5000898;28;20053;-53
2021/10/29 04:52:52;;;;;;;12.25;8.05;;;;;;;12.09;70.59;100708.16;4998513;28;20033;-55
2021/10/29 04:55:18;;;;;;;13.63;8.32;;;;;;;12.06;70.92;100698.59;4999113;28;20085;-54
2021/10/29 04:57:43;;;;;;;13.25;7.90;;;;;;;12.10;70.73;100708.19;5000991;28;20040;-52
2021/10/29 05:00:10;;;;;;;15.07;8.48;;;;;;;12.08;70.79;100709.91;4992817;28;20404;-54
2021/10/29 05:02:35;;;;;;;11.75;7.68;;;;;;;12.11;70.51;100704.69;5001741;28;20651;-54
2021/10/29 05:05:03;;;;;;;15.50;8.27;;;;;;;12.06;70.74;100695.09;5001265;28;20488;-55
2021/10/29 05:07:29;;;;;;;15.38;8.05;;;;;;;12.10;70.69;100694.22;5000058;28;20104;-54
2021/10/29 05:09:55;;;;;;;14.73;8.18;;;;;;;12.04;71.10;100697.69;5026819;28;20072;-53
2021/10/29 05:12:21;;;;;;;11.98;7.70;;;;;;;12.01;70.83;100691.59;4995435;28;20060;-53
2021/10/29 05:14:46;;;;;;;18.00;8.25;;;;;;;11.95;71.22;100695.06;4996248;28;20041;-54
2021/10/29 05:17:12;;;;;;;13.85;8.18;;;;;;;12.04;70.65;100695.09;4997821;28;20451;-54
2021/10/29 05:19:38;;;;;;;14.32;7.80;;;;;;;12.05;70.63;100693.34;5004335;28;20121;-55
2021/10/29 05:22:03;;;;;;;14.52;8.40;;;;;;;12.08;71.04;100693.34;4994257;28;20050;-55
2021/10/29 05:24:29;;;;;;;12.55;7.78;;;;;;;12.08;70.76;100685.50;5000056;28;20364;-52
2021/10/29 05:26:54;;;;;;;15.82;7.78;;;;;;;11.99;70.98;100691.59;4995265;28;20050;-55
2021/10/29 05:29:19;;;;;;;14.75;8.07;;;;;;;11.92;71.40;100687.19;5000977;28;20048;-53
2021/10/29 05:31:45;;;;;;;16.00;8.10;;;;;;;12.05;70.99;100682.91;5000109;28;20500;-53
2021/10/29 05:34:10;;;;;;;13.48;7.70;;;;;;;12.09;70.58;100687.25;4994526;28;20290;-54
2021/10/29 05:36:36;;;;;;;15.05;8.25;;;;;;;12.02;70.46;100690.69;4997656;28;20045;-54
2021/10/29 05:39:04;;;;;;;13.60;7.75;;;;;;;12.00;70.99;100689.84;4995786;28;20433;-56
2021/10/29 05:41:29;;;;;;;12.05;7.72;;;;;;;12.01;70.92;100678.53;4999847;28;20045;-54
2021/10/29 05:43:54;;;;;;;15.57;7.88;;;;;;;11.99;70.79;100682.88;4993963;28;20392;-60
2021/10/29 05:46:22;;;;;;;14.70;8.10;;;;;;;12.03;70.65;100672.44;4998279;28;20133;-54
2021/10/29 05:48:48;;;;;;;11.48;7.60;;;;;;;12.04;70.98;100670.69;4998246;28;20484;-55
2021/10/29 05:51:14;;;;;;;13.70;7.50;;;;;;;12.06;70.89;100675.06;4996684;28;20125;-54
2021/10/29 05:56:05;;;;;;;12.70;7.63;;;;;;;12.01;71.07;100674.19;4988691;28;20689;-55
2021/10/29 05:58:32;;;;;;;14.05;7.75;;;;;;;12.05;70.74;100673.31;5012994;28;20038;-56
2021/10/29 06:00:58;;;;;;;12.50;7.45;;;;;;;12.09;70.66;100672.44;4994545;28;20445;-55
2021/10/29 06:03:24;;;;;;;12.95;7.38;;;;;;;12.05;70.51;100668.09;5003217;28;20440;-55
2021/10/29 06:05:49;;;;;;;11.18;7.50;;;;;;;12.19;70.26;100663.81;4988037;28;20057;-53
2021/10/29 06:08:14;;;;;;;13.00;7.10;;;;;;;12.20;69.67;100665.53;4990777;28;20534;-58
2021/10/29 06:10:40;;;;;;;13.88;7.45;;;;;;;12.17;70.58;100668.13;4985604;28;20468;-56
2021/10/29 06:13:06;;;;;;;11.70;7.50;;;;;;;12.15;70.50;100669.88;5000836;28;20043;-55
2021/10/29 06:15:32;;;;;;;15.98;7.57;;;;;;;12.05;71.41;100662.00;4993925;28;20467;-56
2021/10/29 06:17:58;;;;;;;11.32;7.47;;;;;;;12.12;70.37;100671.59;4986238;28;20049;-55
2021/10/29 06:20:24;;;;;;;12.75;7.28;;;;;;;12.14;70.54;100667.22;4999570;28;20437;-55
2021/10/29 06:22:52;;;;;;;11.70;7.40;;;;;;;12.17;70.37;100667.25;4991124;28;20045;-53
2021/10/29 06:25:20;;;;;;;13.02;7.40;;;;;;;12.25;70.03;100667.28;4992558;28;20505;-56
2021/10/29 06:30:31;;;;;;;14.43;7.55;;;;;;;12.18;70.19;100669.00;5001754;28;20442;-53
2021/10/29 06:32:57;;;;;;;11.63;7.28;;;;;;;12.16;69.98;100671.63;5000774;28;20040;-55
2021/10/29 06:35:23;;;;;;;13.95;7.63;;;;;;;12.11;70.24;100664.63;4997686;28;20540;-55
2021/10/29 06:37:48;;;;;;;10.27;7.30;;;;;;;12.23;70.04;100666.41;4997837;28;20045;-53
2021/10/29 06:40:15;;;;;;;14.85;7.63;;;;;;;12.16;70.70;100666.38;4993076;28;20044;-54
2021/10/29 06:42:47;;;;;;;12.30;7.63;;;;;;;12.18;70.05;100669.88;4994438;28;20391;-55
2021/10/29 06:45:24;;;;;;;12.65;7.30;;;;;;;12.16;70.45;100662.91;4999684;28;20033;-55
2021/10/29 06:48:14;;;;;;;14.02;7.63;;;;;;;12.19;70.20;100668.16;4998649;28;20617;-53
2021/10/29 07:01:54;;;;;;;15.13;7.25;;;;;;;12.31;70.29;100659.47;4996150;28;20036;-54
2021/10/29 07:40:07;;;;;;;14.20;6.82;;;;;;;13.36;66.85;100631.63;4988793;28;20273;-53
2021/10/29 07:42:40;;;;;;;14.30;7.30;;;;;;;13.41;66.92;100637.75;4992005;28;20045;-50
2021/10/29 07:45:08;;;;;;;10.85;6.72;;;;;;;13.44;66.70;100623.78;4998344;28;21381;-57
2021/10/29 07:47:34;;;;;;;13.63;7.07;;;;;;;13.36;66.75;100631.63;4992127;28;20524;-55
2021/10/29 07:50:01;;;;;;;13.23;7.03;;;;;;;13.51;66.24;100629.00;4992620;28;20042;-54
2021/10/29 07:52:26;;;;;;;12.20;7.10;;;;;;;13.56;66.27;100627.22;4996962;28;20118;-56
2021/10/29 07:54:51;;;;;;;11.23;6.43;;;;;;;13.75;65.65;100621.06;4991116;28;20257;-54
2021/10/29 07:57:20;;;;;;;12.80;7.15;;;;;;;13.84;65.10;100621.91;4997000;28;20174;-52
2021/10/29 07:59:54;;;;;;;13.77;6.88;;;;;;;13.94;64.81;100615.75;4996027;28;20567;-55
2021/10/29 08:02:19;;;;;;;14.82;7.13;;;;;;;14.05;64.42;100617.44;4993557;28;20138;-55
2021/10/29 08:04:46;;;;;;;12.68;6.78;;;;;;;14.11;65.12;100611.28;5001403;28;20048;-54
2021/10/29 08:07:12;;;;;;;10.63;6.75;;;;;;;14.22;64.04;100605.09;5000177;28;20132;-54
2021/10/29 08:09:39;;;;;;;10.60;6.82;;;;;;;14.26;64.36;100610.34;5000548;28;20103;-55
2021/10/29 08:12:05;;;;;;;11.90;6.35;;;;;;;14.36;63.86;100607.66;4994198;28;20446;-55
2021/10/29 08:14:30;;;;;;;10.52;6.90;;;;;;;14.39;64.02;100614.69;5002256;28;20425;-54
2021/10/29 08:16:55;;;;;;;12.32;7.07;;;;;;;14.50;64.00;100613.72;4998865;28;20062;-52
2021/10/29 08:19:27;;;;;;;12.70;6.90;;;;;;;14.58;62.97;100604.03;4998236;28;20070;-53
2021/10/29 08:21:53;;;;;;;11.43;6.63;;;;;;;14.78;62.60;100605.63;4996532;28;20124;-53
2021/10/29 08:24:19;;;;;;;14.00;6.80;;;;;;;14.79;63.01;100605.63;4994946;28;20041;-51
2021/10/29 08:26:45;;;;;;;12.18;6.45;;;;;;;14.92;62.31;100602.03;5001784;28;20117;-54
2021/10/29 08:29:11;;;;;;;11.63;6.75;;;;;;;14.91;62.25;100594.16;5006739;28;20060;-55
2021/10/29 08:31:36;;;;;;;14.73;7.03;;;;;;;15.11;61.39;100586.97;5016543;28;20114;-57
2021/10/29 08:34:02;;;;;;;12.60;6.97;;;;;;;15.20;62.37;100583.38;5007303;28;21542;-54
2021/10/29 08:36:29;;;;;;;11.13;6.85;;;;;;;15.29;61.37;100576.28;5018753;28;20046;-55
2021/10/29 08:38:55;;;;;;;11.30;7.07;;;;;;;15.15;61.52;100580.81;5015969;28;20576;-52
2021/10/29 08:41:22;;;;;;;12.45;6.88;;;;;;;15.13;60.91;100574.69;5019760;28;20041;-54
2021/10/29 08:43:48;;;;;;;13.63;6.90;;;;;;;15.30;61.84;100578.03;5017295;28;20264;-55
2021/10/29 08:46:14;;;;;;;11.50;6.68;;;;;;;15.39;60.47;100580.53;4995742;28;20296;-52
2021/10/29 08:48:40;;;;;;;12.52;6.68;;;;;;;15.48;60.67;100578.72;4994646;28;20124;-54
2021/10/29 08:51:05;;;;;;;13.32;6.28;;;;;;;15.59;59.71;100579.47;4993373;28;20036;-52
2021/10/29 08:53:31;;;;;;;10.70;7.00;;;;;;;15.65;59.32;100572.41;5029244;28;20125;-55
2021/10/29 08:56:01;;;;;;;14.43;6.75;;;;;;;15.79;59.93;100578.38;4988158;28;20493;-58
2021/10/29 08:58:27;;;;;;;10.95;6.60;;;;;;;15.83;59.40;100572.16;4993235;28;20123;-52
2021/10/29 09:00:52;;;;;;;12.73;6.88;;;;;;;15.88;60.34;100572.09;4995178;28;20468;-55
2021/10/29 09:03:29;;;;;;;13.57;6.47;;;;;;;15.91;59.71;100569.44;4995939;28;20045;-51
2021/10/29 09:06:16;;;;;;;13.25;6.70;;;;;;;15.97;59.12;100574.63;4993670;28;20056;-52
2021/10/29 09:31:34;;;;;;;9.10;5.90;;;;;;;16.28;58.83;100559.28;4998029;28;20223;-55
2021/10/29 09:34:07;;;;;;;9.52;6.13;;;;;;;16.36;58.50;100552.13;4984737;28;20052;-55
2021/10/29 09:36:43;;;;;;;10.07;5.63;;;;;;;16.38;58.55;100557.38;4998749;28;20313;-53
2021/10/29 09:39:09;;;;;;;10.88;6.18;;;;;;;16.34;58.04;100550.44;4993571;28;20528;-49
2021/10/29 09:41:36;;;;;;;16.42;6.45;;;;;;;16.19;59.68;100546.25;4995544;28;20144;-57
2021/10/29 09:44:14;;;;;;;10.90;6.18;;;;;;;16.26;58.65;100537.38;4988623;28;20038;-51
2021/10/29 09:47:05;;;;;;;12.43;6.00;;;;;;;16.41;58.65;100550.28;4997729;28;20136;-54
2021/10/29 09:49:35;;;;;;;10.15;5.57;;;;;;;16.49;57.40;100539.66;4992838;28;20134;-54
2021/10/29 09:54:53;;;;;;;10.38;5.40;;;;;;;16.37;58.94;100532.81;4995071;28;20381;-53
2021/10/29 09:57:20;;;;;;;11.45;5.80;;;;;;;16.40;59.55;100524.03;4995589;28;20339;-56
2021/10/29 09:59:45;;;;;;;14.65;6.30;;;;;;;16.52;58.68;100526.47;4992396;28;20779;-55
2021/10/29 10:02:21;;;;;;;15.05;5.88;;;;;;;16.42;58.97;100519.59;4993098;28;20255;-55
2021/10/29 10:04:54;;;;;;;10.30;5.70;;;;;;;16.41;59.28;100516.09;5013118;28;20068;-54
2021/10/29 10:07:36;;;;;;;9.43;5.47;;;;;;;16.49;58.83;100521.22;4996498;28;20042;-51
2021/10/29 10:10:05;;;;;;;11.57;5.43;;;;;;;16.55;57.91;100502.72;4989175;28;20345;-52
2021/10/29 10:12:34;;;;;;;14.60;5.30;;;;;;;16.64;58.43;100502.59;4995602;28;20042;-54
2021/10/29 10:15:01;;;;;;;13.70;5.50;;;;;;;16.39;58.29;100503.88;4998657;28;20425;-52
2021/10/29 10:17:27;;;;;;;11.77;5.43;;;;;;;16.51;57.71;100493.13;4995368;28;20485;-54
2021/10/29 10:19:53;;;;;;;13.43;5.60;;;;;;;16.53;58.57;100494.84;4994491;28;20500;-54
2021/10/29 10:22:22;;;;;;;15.27;5.38;;;;;;;16.61;57.79;100487.72;4995196;28;20784;-57
2021/10/29 10:24:53;;;;;;;12.57;5.70;;;;;;;16.77;57.81;100475.13;4991791;28;20085;-55
2021/10/29 10:44:30;;;;;;;11.57;5.40;;;;;;;16.90;57.39;100428.38;4985382;28;20517;-54
2021/10/29 10:46:58;;;;;;;14.05;5.28;;;;;;;16.85;57.67;100433.75;5002775;28;20050;-55
2021/10/29 10:49:53;;;;;;;12.25;5.50;;;;;;;16.92;57.30;100421.34;4996848;28;20112;-54
2021/10/29 10:52:26;;;;;;;10.85;5.57;;;;;;;16.95;56.90;100424.78;4987774;28;20823;-53
2021/10/29 10:54:59;;;;;;;8.60;5.38;;;;;;;17.04;56.98;100424.59;5001822;28;20136;-55
2021/10/29 11:03:09;;;;;;;13.55;5.40;;;;;;;17.13;55.86;100435.84;4994779;28;20053;-54
2021/10/29 11:10:58;;;;;;;9.48;5.10;;;;;;;17.26;56.71;100438.19;4999390;28;20041;-56
2021/10/29 11:13:47;;;;;;;7.53;4.72;;;;;;;17.27;57.41;100428.50;4992287;28;20766;-55
2021/10/29 11:16:27;;;;;;;7.57;5.03;;;;;;;17.34;56.33;100444.16;4990219;28;20946;-57
2021/10/29 11:18:55;;;;;;;9.43;4.80;;;;;;;17.41;55.67;100424.69;4998428;28;20563;-55
2021/10/29 11:21:32;;;;;;;9.15;5.10;;;;;;;17.56;55.17;100433.19;4997612;28;20379;-51
2021/10/29 11:24:00;;;;;;;11.90;5.15;;;;;;;17.49;56.18;100439.47;4990758;28;20467;-54
2021/10/29 11:26:33;;;;;;;8.70;5.20;;;;;;;17.54;55.67;100432.34;4997490;28;20143;-55
2021/10/29 11:29:02;;;;;;;9.77;5.30;;;;;;;17.50;55.44;100428.03;4988660;28;20651;-54
2021/10/29 11:31:32;;;;;;;9.75;5.47;;;;;;;17.56;55.48;100426.13;4997987;28;20045;-56
2021/10/29 11:34:03;;;;;;;12.65;5.30;;;;;;;17.64;56.39;100416.31;4990476;28;20111;-55
2021/10/29 11:36:31;;;;;;;10.25;5.30;;;;;;;17.61;56.83;100413.75;4990171;28;20054;-58
2021/10/29 11:38:57;;;;;;;11.13;5.13;;;;;;;17.38;55.14;100410.72;4992746;28;20045;-55
2021/10/29 11:41:29;;;;;;;13.20;5.25;;;;;;;17.54;56.37;100411.25;4991270;28;20040;-52
2021/10/29 11:44:03;;;;;;;9.95;5.10;;;;;;;17.39;55.42;100402.78;4997919;28;20098;-55
2021/10/29 11:46:31;;;;;;;11.55;4.95;;;;;;;17.59;56.08;100396.19;4990123;28;20034;-55
2021/10/29 11:49:07;;;;;;;11.50;5.28;;;;;;;17.72;56.79;100393.28;4995596;28;20375;-54
2021/10/29 11:51:34;;;;;;;10.32;5.03;;;;;;;17.70;57.86;100395.06;4995389;28;20037;-55
2021/10/29 11:54:11;;;;;;;10.80;5.03;;;;;;;17.72;55.84;100377.47;4990900;28;20106;-53
2021/10/29 11:56:44;;;;;;;10.23;5.25;;;;;;;17.58;55.67;100386.53;4994296;28;20045;-54
2021/10/29 12:07:23;;;;;;;;;;;;;;;17.86;54.99;100374.50;4991034;28;20155;-53
2021/10/29 12:09:51;;;;;;;13.38;4.93;;;;;;;17.95;55.24;100382.16;4993263;28;19975;-55
2021/10/29 12:12:21;;;;;;;12.95;4.93;;;;;;;18.01;55.50;100362.69;5016261;28;20439;-54
2021/10/29 12:14:50;;;;;;;10.48;5.10;;;;;;;18.10;54.48;100336.97;4992656;28;20044;-54
2021/10/29 12:19:54;;;;;;;11.52;5.40;;;;;;;18.07;55.23;100366.03;4996945;28;20373;-54
2021/10/29 12:25:01;;;;;;;14.60;5.07;;;;;;;17.94;55.94;100363.75;4991056;28;20273;-55
2021/10/29 12:27:40;;;;;;;10.15;5.00;;;;;;;17.99;56.20;100351.31;5001903;28;20492;-55
2021/10/29 13:03:37;;;;;;;10.75;4.90;;;;;;;18.17;55.40;100311.28;4996861;28;20125;-54
2021/10/29 13:06:06;;;;;;;10.50;5.07;;;;;;;18.15;55.17;100291.97;4992616;28;20544;-55
2021/10/29 13:08:35;;;;;;;14.05;4.88;;;;;;;18.20;55.68;100298.00;4999268;28;20112;-55
2021/10/29 13:11:01;;;;;;;8.95;4.70;;;;;;;18.35;54.26;100300.22;4994757;28;20702;-56
2021/10/29 13:13:30;;;;;;;9.70;4.93;;;;;;;18.36;55.09;100306.38;4993280;28;20414;-53
2021/10/29 13:16:05;;;;;;;17.00;5.30;;;;;;;18.43;55.33;100306.16;5000901;28;20299;-56
2021/10/29 13:27:10;;;;;;;10.10;5.00;;;;;;;18.54;54.55;100300.59;5003010;28;20045;-54
2021/10/29 13:54:20;;;;;;;14.15;5.15;;;;;;;18.49;55.26;100313.03;4977133;28;19924;-53
2021/10/29 14:02:39;;;;;;;9.80;5.20;;;;;;;18.28;56.74;100317.13;4992061;28;20354;-54
2021/10/29 14:29:33;;;;;;;10.63;5.20;;;;;;;17.49;62.24;100366.56;4995576;28;20010;-55
2021/10/29 14:32:13;;;;;;;9.43;4.70;;;;;;;17.24;62.83;100363.59;4992016;28;20488;-55
2021/10/29 14:34:42;;;;;;;11.38;5.10;;;;;;;17.25;63.65;100360.06;4995920;28;20049;-58
2021/10/29 14:37:18;;;;;;;12.15;5.20;;;;;;;16.92;65.95;100361.66;5000898;28;20526;-53
2021/10/29 14:42:48;;;;;;;7.97;4.60;;;;;;;16.88;65.97;100359.13;4993592;28;20381;-55
2021/10/29 14:45:26;;;;;;;11.73;4.85;;;;;;;16.87;66.66;100357.38;4994834;28;20774;-55
2021/10/29 14:48:22;;;;;;;11.75;5.10;;;;;;;16.86;67.65;100355.63;4994383;28;20395;-57
2021/10/29 15:02:22;;;;;;;10.07;5.40;;;;;;;16.82;66.22;100388.19;4996124;28;20091;-52
2021/10/29 15:04:21;;;;;;;8.18;5.00;;;;;;;16.85;66.31;100396.88;4988138;28;20403;-54
2021/10/29 15:44:31;;;;;;;11.43;6.13;;;;;;;16.50;66.78;100392.28;4988770;28;20150;-51
2021/10/29 15:47:02;;;;;;;9.38;5.32;;;;;;;16.41;67.14;100392.44;5002972;28;20668;-52
2021/10/29 15:49:41;;;;;;;9.70;5.15;;;;;;;16.36;66.65;100375.84;4999891;28;20049;-56
2021/10/29 15:52:19;;;;;;;8.77;4.15;;;;;;;16.20;67.58;100384.94;4983791;28;20552;-55